Time;durP1;ratioP1;P1;durP2;ratioP2;P2;SDS_P1;SDS_P2;PMS_P1;PMS_P2;Temp;Humidity;BMP_temperature;BMP_pressure;BME280_temperature;BME280_humidity;BME280_pressure;Samples;Min_cycle;Max_cycle;Signal;HPM_P1;HPM_P2
2022/09/21 00:01:06;;;;;;;;;;;11.00;99.90;;;;;;5034175;28;19985;-65
2022/09/21 00:03:34;;;;;;;;;;;10.90;99.90;;;;;;5033494;28;19967;-67
2022/09/21 00:06:02;;;;;;;;;;;10.90;99.90;;;;;;5039900;28;19989;-66
2022/09/21 00:08:30;;;;;;;;;;;10.90;99.90;;;;;;5033550;28;19967;-66
2022/09/21 00:10:58;;;;;;;;;;;10.90;99.90;;;;;;5033702;28;19963;-67
2022/09/21 00:13:27;;;;;;;;;;;10.90;99.90;;;;;;5033589;28;19975;-66
2022/09/21 00:15:56;;;;;;;;;;;10.80;99.90;;;;;;5034352;28;19967;-67
2022/09/21 00:18:23;;;;;;;;;;;10.90;99.90;;;;;;5031840;28;19959;-66
2022/09/21 00:20:52;;;;;;;;;;;10.90;99.90;;;;;;5033802;28;20401;-66
2022/09/21 00:23:20;;;;;;;;;;;11.00;99.90;;;;;;5032846;28;19981;-66
2022/09/21 00:25:47;;;;;;;;;;;11.00;99.90;;;;;;5034107;28;19963;-66
2022/09/21 00:28:15;;;;;;;;;;;11.10;99.90;;;;;;5033240;28;19965;-65
2022/09/21 00:30:43;;;;;;;;;;;11.10;99.90;;;;;;5033695;28;19967;-66
2022/09/21 00:33:13;;;;;;;;;;;10.90;99.90;;;;;;5032814;28;19963;-65
2022/09/21 00:35:40;;;;;;;;;;;11.00;99.90;;;;;;5035079;28;19967;-66
2022/09/21 00:38:08;;;;;;;;;;;11.00;99.90;;;;;;5033079;28;19963;-66
2022/09/21 00:40:36;;;;;;;;;;;10.90;99.90;;;;;;5031427;28;19963;-66
2022/09/21 00:43:14;;;;;;;;;;;10.90;99.90;;;;;;5033113;28;19967;-66
2022/09/21 00:45:42;;;;;;;;;;;10.80;99.90;;;;;;5032857;28;19985;-66
2022/09/21 00:48:09;;;;;;;;;;;10.70;99.90;;;;;;5031507;28;20016;-66
2022/09/21 00:50:41;;;;;;;;;;;10.60;99.90;;;;;;5032887;28;19963;-66
2022/09/21 00:53:10;;;;;;;;;;;10.50;99.90;;;;;;5028349;28;19963;-66
2022/09/21 00:55:40;;;;;;;;;;;10.30;99.90;;;;;;5027044;28;19967;-66
2022/09/21 00:58:09;;;;;;;;;;;10.20;99.90;;;;;;5032350;28;19963;-65
2022/09/21 01:00:39;;;;;;;;;;;10.10;99.90;;;;;;5031898;28;20443;-65
2022/09/21 01:03:07;;;;;;;;;;;9.90;99.90;;;;;;5033563;28;20382;-66
2022/09/21 01:05:35;;;;;;;;;;;9.90;99.90;;;;;;5034830;28;20341;-66
2022/09/21 01:08:05;;;;;;;;;;;9.90;99.90;;;;;;5032310;28;20350;-65
2022/09/21 01:10:44;;;;;;;;;;;10.00;99.90;;;;;;5032946;28;19970;-65
2022/09/21 01:13:18;;;;;;;;;;;10.00;99.90;;;;;;5029016;28;19973;-66
2022/09/21 01:15:50;;;;;;;;;;;10.10;99.90;;;;;;5032424;28;20311;-65
2022/09/21 01:18:20;;;;;;;;;;;10.10;99.90;;;;;;5031956;28;19962;-65
2022/09/21 01:21:06;;;;;;;;;;;10.20;99.90;;;;;;5031823;28;19963;-66
2022/09/21 01:23:44;;;;;;;;;;;10.20;99.90;;;;;;5032430;28;19982;-66
2022/09/21 01:26:15;;;;;;;;;;;10.20;99.90;;;;;;5032175;28;19973;-66
2022/09/21 01:29:07;;;;;;;;;;;10.10;99.90;;;;;;5032781;28;19963;-65
2022/09/21 01:31:39;;;;;;;;;;;10.00;99.90;;;;;;5017052;28;19963;-65
2022/09/21 01:34:10;;;;;;;;;;;10.10;99.90;;;;;;5033827;28;19963;-65
2022/09/21 01:36:38;;;;;;;;;;;10.00;99.90;;;;;;5036839;28;19959;-65
2022/09/21 01:39:07;;;;;;;;;;;9.90;99.90;;;;;;5031669;28;20425;-65
2022/09/21 01:41:35;;;;;;;;;;;9.90;99.90;;;;;;5032127;28;20341;-65
2022/09/21 01:44:07;;;;;;;;;;;9.90;99.90;;;;;;5027179;28;20046;-65
2022/09/21 01:46:36;;;;;;;;;;;9.80;99.90;;;;;;5032666;28;20481;-64
2022/09/21 01:49:09;;;;;;;;;;;9.70;99.90;;;;;;5032113;28;19965;-65
2022/09/21 01:51:37;;;;;;;;;;;9.70;99.90;;;;;;5031893;28;20034;-66
2022/09/21 01:54:09;;;;;;;;;;;9.70;99.90;;;;;;5030576;28;19967;-65
2022/09/21 01:56:39;;;;;;;;;;;9.80;99.90;;;;;;5031302;28;19966;-66
2022/09/21 01:59:09;;;;;;;;;;;9.70;99.90;;;;;;5031788;28;19967;-66
2022/09/21 02:01:38;;;;;;;;;;;9.60;99.90;;;;;;5028522;28;20720;-66
2022/09/21 02:04:09;;;;;;;;;;;9.70;99.90;;;;;;5032160;28;19969;-66
2022/09/21 02:06:38;;;;;;;;;;;9.90;99.90;;;;;;5029055;28;20487;-66
2022/09/21 02:09:06;;;;;;;;;;;10.00;99.90;;;;;;5031263;28;19965;-66
2022/09/21 02:11:37;;;;;;;;;;;10.00;99.90;;;;;;5031692;28;20339;-66
2022/09/21 02:14:07;;;;;;;;;;;10.10;99.90;;;;;;5031438;28;19963;-66
2022/09/21 02:16:38;;;;;;;;;;;10.10;99.90;;;;;;5032060;28;19959;-66
2022/09/21 02:19:12;;;;;;;;;;;10.00;99.90;;;;;;5031650;28;19998;-66
2022/09/21 02:21:45;;;;;;;;;;;9.90;99.90;;;;;;5024373;28;20351;-66
2022/09/21 02:24:20;;;;;;;;;;;9.90;99.90;;;;;;5029023;28;19979;-65
2022/09/21 02:26:51;;;;;;;;;;;9.70;99.90;;;;;;5031405;28;19970;-65
2022/09/21 02:29:21;;;;;;;;;;;9.60;99.90;;;;;;5029277;28;20034;-65
2022/09/21 02:31:51;;;;;;;;;;;9.70;99.90;;;;;;5028894;28;19975;-65
2022/09/21 02:34:26;;;;;;;;;;;9.90;99.90;;;;;;5037113;28;21285;-65
2022/09/21 02:36:55;;;;;;;;;;;9.90;99.90;;;;;;5030878;28;19997;-64
2022/09/21 02:39:26;;;;;;;;;;;9.90;99.90;;;;;;5031624;28;19973;-64
2022/09/21 02:42:00;;;;;;;;;;;9.90;99.90;;;;;;5030676;28;19967;-65
2022/09/21 02:44:32;;;;;;;;;;;10.00;99.90;;;;;;5031716;28;19971;-65
2022/09/21 02:47:03;;;;;;;;;;;9.90;99.90;;;;;;5030907;28;20342;-64
2022/09/21 02:49:34;;;;;;;;;;;9.90;99.90;;;;;;5030794;28;20334;-65
2022/09/21 02:52:04;;;;;;;;;;;9.80;99.90;;;;;;5030880;28;19967;-65
2022/09/21 02:54:33;;;;;;;;;;;9.80;99.90;;;;;;5030594;28;19963;-65
2022/09/21 02:57:01;;;;;;;;;;;9.80;99.90;;;;;;5031352;28;19974;-65
2022/09/21 02:59:30;;;;;;;;;;;10.00;99.90;;;;;;5030881;28;19974;-65
2022/09/21 03:01:58;;;;;;;;;;;10.00;99.90;;;;;;5031329;28;19968;-65
2022/09/21 03:04:26;;;;;;;;;;;10.00;99.90;;;;;;5029721;28;20053;-65
2022/09/21 03:06:55;;;;;;;;;;;10.10;99.90;;;;;;5030387;28;20454;-66
2022/09/21 03:09:23;;;;;;;;;;;10.10;99.90;;;;;;5028567;28;19974;-65
2022/09/21 03:11:51;;;;;;;;;;;10.10;99.90;;;;;;5025091;28;19967;-65
2022/09/21 03:14:19;;;;;;;;;;;10.10;99.90;;;;;;5028551;28;19973;-65
2022/09/21 03:16:46;;;;;;;;;;;10.10;99.90;;;;;;5024224;28;20319;-65
2022/09/21 03:19:14;;;;;;;;;;;10.10;99.90;;;;;;5027981;28;19967;-65
2022/09/21 03:21:42;;;;;;;;;;;10.20;99.90;;;;;;5026943;28;19967;-65
2022/09/21 03:24:44;;;;;;;;;;;10.20;99.90;;;;;;5031489;28;19990;-65
2022/09/21 03:27:00;;;;;;;;;;;10.20;99.90;;;;;;5030419;28;19967;-66
2022/09/21 03:29:28;;;;;;;;;;;10.20;99.90;;;;;;5029033;28;19985;-65
2022/09/21 03:31:55;;;;;;;;;;;10.30;99.90;;;;;;5030259;28;20293;-65
2022/09/21 03:34:23;;;;;;;;;;;10.20;99.90;;;;;;5031180;28;20438;-65
2022/09/21 03:36:51;;;;;;;;;;;10.30;99.90;;;;;;5035812;28;19967;-65
2022/09/21 03:39:20;;;;;;;;;;;10.20;99.90;;;;;;5031528;28;19973;-66
2022/09/21 03:41:48;;;;;;;;;;;10.20;99.90;;;;;;5030440;28;19978;-66
2022/09/21 03:44:16;;;;;;;;;;;10.20;99.90;;;;;;5030180;28;19971;-66
2022/09/21 03:46:44;;;;;;;;;;;10.20;99.90;;;;;;5034274;28;19971;-66
2022/09/21 03:49:12;;;;;;;;;;;10.20;99.90;;;;;;5034321;28;20475;-66
2022/09/21 03:51:39;;;;;;;;;;;10.20;99.90;;;;;;5034006;28;19967;-66
2022/09/21 03:54:07;;;;;;;;;;;10.30;99.90;;;;;;5034494;28;19990;-66
2022/09/21 03:56:36;;;;;;;;;;;10.30;99.90;;;;;;5033706;28;19963;-66
2022/09/21 03:59:04;;;;;;;;;;;10.30;99.90;;;;;;5034339;28;20440;-66
2022/09/21 04:01:31;;;;;;;;;;;10.20;99.90;;;;;;5033668;28;19979;-66
2022/09/21 04:03:59;;;;;;;;;;;10.10;99.90;;;;;;5034427;28;19968;-66
2022/09/21 04:06:27;;;;;;;;;;;10.10;99.90;;;;;;5035824;28;19963;-66
2022/09/21 04:08:55;;;;;;;;;;;10.10;99.90;;;;;;5039218;28;19971;-66
2022/09/21 04:11:23;;;;;;;;;;;10.10;99.90;;;;;;5030402;28;19963;-66
2022/09/21 04:13:55;;;;;;;;;;;10.00;99.90;;;;;;5031180;28;20439;-66
2022/09/21 04:16:24;;;;;;;;;;;10.00;99.90;;;;;;5034511;28;19971;-66
2022/09/21 04:18:52;;;;;;;;;;;10.10;99.90;;;;;;5032569;28;20025;-66
2022/09/21 04:21:19;;;;;;;;;;;10.00;99.90;;;;;;5034391;28;20345;-65
2022/09/21 04:23:48;;;;;;;;;;;10.00;99.90;;;;;;5028731;28;20611;-63
2022/09/21 04:26:21;;;;;;;;;;;10.00;99.90;;;;;;5021924;28;19971;-64
2022/09/21 04:28:48;;;;;;;;;;;10.00;99.90;;;;;;5017421;28;20661;-65
2022/09/21 04:31:17;;;;;;;;;;;9.80;99.90;;;;;;5020789;28;20339;-64
2022/09/21 04:33:48;;;;;;;;;;;9.50;99.90;;;;;;5015370;28;20064;-64
2022/09/21 04:36:15;;;;;;;;;;;9.30;99.90;;;;;;5016272;28;21148;-64
2022/09/21 04:38:43;;;;;;;;;;;9.10;99.90;;;;;;5013936;28;19971;-63
2022/09/21 04:41:11;;;;;;;;;;;9.00;99.90;;;;;;5011258;28;19990;-64
2022/09/21 04:43:41;;;;;;;;;;;8.90;99.90;;;;;;5015626;28;19967;-66
2022/09/21 04:46:09;;;;;;;;;;;8.80;99.90;;;;;;5015018;28;19970;-64
2022/09/21 04:48:39;;;;;;;;;;;8.70;99.90;;;;;;5015874;28;19963;-64
2022/09/21 04:51:07;;;;;;;;;;;8.70;99.90;;;;;;5019399;28;20694;-64
2022/09/21 04:53:35;;;;;;;;;;;8.60;99.90;;;;;;5018946;28;19970;-64
2022/09/21 04:56:04;;;;;;;;;;;8.50;99.90;;;;;;5011966;28;19963;-64
2022/09/21 04:58:32;;;;;;;;;;;8.40;99.90;;;;;;5013348;28;19962;-64
2022/09/21 05:01:00;;;;;;;;;;;8.30;99.90;;;;;;5018462;28;20006;-64
2022/09/21 05:03:28;;;;;;;;;;;8.20;99.90;;;;;;5017797;28;19967;-64
2022/09/21 05:05:57;;;;;;;;;;;8.20;99.90;;;;;;5015601;28;19971;-64
2022/09/21 05:11:08;;;;;;;;;;;8.00;99.90;;;;;;5015801;28;19977;-64
2022/09/21 05:13:36;;;;;;;;;;;8.00;99.90;;;;;;5016124;28;19975;-64
2022/09/21 05:16:04;;;;;;;;;;;8.00;99.90;;;;;;5017287;28;19963;-64
2022/09/21 05:18:32;;;;;;;;;;;8.00;99.90;;;;;;5011070;28;19966;-64
2022/09/21 05:21:02;;;;;;;;;;;8.00;99.90;;;;;;5017071;28;19967;-64
2022/09/21 05:23:30;;;;;;;;;;;8.00;99.90;;;;;;5017734;28;19965;-64
2022/09/21 05:25:59;;;;;;;;;;;8.00;99.90;;;;;;5013867;28;19974;-64
2022/09/21 05:28:26;;;;;;;;;;;8.00;99.90;;;;;;5038666;22;19963;-69
2022/09/21 05:30:58;;;;;;;;;;;8.00;99.90;;;;;;5012802;28;19990;-71
2022/09/21 05:33:46;;;;;;;;;;;8.00;99.90;;;;;;5013257;28;19981;-71
2022/09/21 05:36:24;;;;;;;;;;;8.00;99.90;;;;;;5008129;28;19967;-73
2022/09/21 05:38:51;;;;;;;;;;;8.00;99.90;;;;;;5003893;28;20030;-73
2022/09/21 05:41:20;;;;;;;;;;;8.00;99.90;;;;;;4991010;28;19963;-73
2022/09/21 05:43:48;;;;;;;;;;;8.10;99.90;;;;;;4991141;28;20422;-74
2022/09/21 05:46:18;;;;;;;;;;;8.10;99.90;;;;;;4991596;28;20098;-73
2022/09/21 05:48:51;;;;;;;;;;;8.00;99.90;;;;;;4990123;28;19971;-73
2022/09/21 05:51:24;;;;;;;;;;;8.10;99.90;;;;;;4987435;28;19967;-73
2022/09/21 05:53:56;;;;;;;;;;;8.10;99.90;;;;;;4987654;28;19998;-73
2022/09/21 05:56:36;;;;;;;;;;;8.20;99.90;;;;;;4991897;28;19970;-73
2022/09/21 05:59:10;;;;;;;;;;;8.20;99.90;;;;;;4985502;28;20095;-73
2022/09/21 06:01:44;;;;;;;;;;;8.30;99.90;;;;;;4993008;28;19974;-72
2022/09/21 06:04:12;;;;;;;;;;;8.30;99.90;;;;;;4991114;28;20333;-72
2022/09/21 06:06:41;;;;;;;;;;;8.30;99.90;;;;;;4983130;28;19983;-72
2022/09/21 06:09:09;;;;;;;;;;;8.40;99.90;;;;;;4985176;28;20807;-73
2022/09/21 06:11:37;;;;;;;;;;;8.40;99.90;;;;;;4986196;28;19967;-74
2022/09/21 06:14:05;;;;;;;;;;;8.40;99.90;;;;;;4989364;28;20066;-72
2022/09/21 06:16:40;;;;;;;;;;;8.40;99.90;;;;;;4988371;28;19964;-73
2022/09/21 06:19:10;;;;;;;;;;;8.50;99.90;;;;;;4987962;28;19972;-73
2022/09/21 06:21:38;;;;;;;;;;;8.60;99.90;;;;;;4985074;28;20366;-73
2022/09/21 06:24:07;;;;;;;;;;;8.60;99.90;;;;;;4989305;28;19971;-73
2022/09/21 06:26:35;;;;;;;;;;;8.60;99.90;;;;;;4989552;28;20330;-73
2022/09/21 06:29:02;;;;;;;;;;;8.60;99.90;;;;;;4984270;28;19974;-73
2022/09/21 06:31:30;;;;;;;;;;;8.60;99.90;;;;;;4989231;28;19964;-73
2022/09/21 06:33:58;;;;;;;;;;;8.60;99.90;;;;;;4985265;28;19964;-73
2022/09/21 06:36:26;;;;;;;;;;;8.70;99.90;;;;;;4988404;28;20448;-72
2022/09/21 06:38:54;;;;;;;;;;;8.80;99.90;;;;;;4983790;28;19968;-72
2022/09/21 06:41:23;;;;;;;;;;;8.80;99.90;;;;;;4982668;28;19968;-74
2022/09/21 06:43:53;;;;;;;;;;;8.90;99.90;;;;;;4984125;28;20556;-73
2022/09/21 06:46:21;;;;;;;;;;;9.00;99.90;;;;;;4985059;28;19979;-73
2022/09/21 06:48:49;;;;;;;;;;;9.10;99.90;;;;;;4980311;28;19968;-73
2022/09/21 06:51:19;;;;;;;;;;;9.10;99.90;;;;;;4982642;28;19964;-72
2022/09/21 06:53:47;;;;;;;;;;;9.20;99.90;;;;;;4981719;28;19963;-71
2022/09/21 06:56:15;;;;;;;;;;;9.20;99.90;;;;;;4988666;28;20439;-73
2022/09/21 06:58:46;;;;;;;;;;;9.30;99.90;;;;;;4980480;28;19972;-72
2022/09/21 07:01:14;;;;;;;;;;;9.40;99.90;;;;;;4981853;28;19974;-72
2022/09/21 07:03:42;;;;;;;;;;;9.50;99.90;;;;;;4990408;28;19968;-72
2022/09/21 07:06:13;;;;;;;;;;;9.70;99.90;;;;;;4982773;28;19971;-73
2022/09/21 07:08:41;;;;;;;;;;;9.80;99.90;;;;;;4980741;28;20729;-72
2022/09/21 07:11:28;;;;;;;;;;;9.90;99.90;;;;;;4988075;28;19968;-72
2022/09/21 07:13:58;;;;;;;;;;;10.10;99.90;;;;;;4984262;28;19972;-73
2022/09/21 07:16:26;;;;;;;;;;;10.30;99.90;;;;;;4985962;28;19967;-73
2022/09/21 07:18:54;;;;;;;;;;;10.30;99.90;;;;;;4983769;28;20172;-74
2022/09/21 07:21:23;;;;;;;;;;;10.40;99.90;;;;;;4993757;28;20726;-72
2022/09/21 07:23:51;;;;;;;;;;;10.60;99.90;;;;;;4988780;28;19967;-71
2022/09/21 07:26:18;;;;;;;;;;;10.70;99.90;;;;;;4992805;28;20523;-73
2022/09/21 07:28:46;;;;;;;;;;;10.90;99.90;;;;;;4984611;28;19974;-74
2022/09/21 07:31:16;;;;;;;;;;;11.10;99.90;;;;;;4991984;28;20347;-73
2022/09/21 07:33:45;;;;;;;;;;;11.20;99.90;;;;;;4992095;28;19976;-73
2022/09/21 07:36:13;;;;;;;;;;;11.40;99.90;;;;;;4989338;28;20453;-73
2022/09/21 07:38:41;;;;;;;;;;;11.50;99.90;;;;;;4990187;28;19978;-72
2022/09/21 07:41:10;;;;;;;;;;;11.60;99.90;;;;;;4994650;28;19971;-71
2022/09/21 07:43:38;;;;;;;;;;;11.80;99.90;;;;;;4990397;28;20549;-73
2022/09/21 07:46:07;;;;;;;;;;;11.90;99.90;;;;;;4989393;28;19972;-72
2022/09/21 07:48:36;;;;;;;;;;;11.90;99.90;;;;;;4987025;28;19964;-69
2022/09/21 07:51:05;;;;;;;;;;;11.90;99.90;;;;;;4984933;28;19968;-71
2022/09/21 07:53:33;;;;;;;;;;;12.00;99.90;;;;;;4988414;28;19981;-71
2022/09/21 07:56:01;;;;;;;;;;;12.30;99.90;;;;;;4993451;28;20233;-72
2022/09/21 08:01:13;;;;;;;;;;;12.60;99.90;;;;;;4994748;28;19981;-71
2022/09/21 08:03:42;;;;;;;;;;;12.70;99.90;;;;;;4993706;28;20042;-72
2022/09/21 08:06:10;;;;;;;;;;;12.70;99.90;;;;;;4991851;28;19972;-69
2022/09/21 08:08:38;;;;;;;;;;;12.80;99.90;;;;;;4987709;28;19977;-71
2022/09/21 08:11:06;;;;;;;;;;;13.00;99.90;;;;;;4991422;28;19971;-71
2022/09/21 08:13:34;;;;;;;;;;;13.20;99.90;;;;;;4991218;28;19959;-72
2022/09/21 08:16:02;;;;;;;;;;;13.30;99.90;;;;;;4991674;28;19967;-71
2022/09/21 08:18:30;;;;;;;;;;;13.30;99.90;;;;;;4984918;28;20379;-71
2022/09/21 08:21:00;;;;;;;;;;;13.40;99.90;;;;;;4989117;28;19978;-70
2022/09/21 08:23:29;;;;;;;;;;;13.60;99.90;;;;;;4991287;28;19986;-74
2022/09/21 08:26:00;;;;;;;;;;;13.70;99.90;;;;;;4989952;28;19968;-73
2022/09/21 08:28:28;;;;;;;;;;;13.90;99.90;;;;;;4987010;28;19983;-74
2022/09/21 08:30:58;;;;;;;;;;;14.00;99.90;;;;;;4987272;28;19971;-73
2022/09/21 08:33:27;;;;;;;;;;;14.20;99.90;;;;;;4990179;28;19963;-74
2022/09/21 08:35:57;;;;;;;;;;;14.40;99.90;;;;;;4991742;28;19971;-75
2022/09/21 08:38:26;;;;;;;;;;;14.60;99.90;;;;;;4987760;28;19975;-72
2022/09/21 08:40:55;;;;;;;;;;;14.80;99.90;;;;;;4992214;28;19964;-74
2022/09/21 08:43:29;;;;;;;;;;;14.90;99.90;;;;;;4985963;28;20718;-74
2022/09/21 08:45:58;;;;;;;;;;;15.10;99.90;;;;;;4992706;28;19959;-74
2022/09/21 08:48:29;;;;;;;;;;;15.20;99.90;;;;;;4984902;28;19967;-74
2022/09/21 08:51:04;;;;;;;;;;;15.50;99.90;;;;;;4988714;28;20006;-73
2022/09/21 08:53:35;;;;;;;;;;;15.60;99.90;;;;;;4990069;28;20382;-74
2022/09/21 08:56:03;;;;;;;;;;;15.60;99.90;;;;;;4987036;28;19968;-74
2022/09/21 08:58:31;;;;;;;;;;;15.60;99.90;;;;;;4984282;28;19967;-74
2022/09/21 09:01:07;;;;;;;;;;;15.70;99.90;;;;;;4988863;28;19963;-74
2022/09/21 09:03:42;;;;;;;;;;;16.00;99.90;;;;;;4987650;28;20108;-74
2022/09/21 09:06:14;;;;;;;;;;;16.10;99.90;;;;;;4987830;28;19968;-74
2022/09/21 09:08:51;;;;;;;;;;;16.30;99.90;;;;;;4984029;28;20351;-72
2022/09/21 09:11:27;;;;;;;;;;;16.40;99.90;;;;;;4988942;28;20763;-74
2022/09/21 09:14:09;;;;;;;;;;;16.50;99.90;;;;;;4989162;28;19971;-72
2022/09/21 09:16:43;;;;;;;;;;;16.90;99.90;;;;;;4972383;28;19967;-71
2022/09/21 09:19:17;;;;;;;;;;;17.00;99.90;;;;;;4981299;28;20019;-71
2022/09/21 09:21:45;;;;;;;;;;;17.60;99.90;;;;;;4991539;28;21194;-71
2022/09/21 09:24:17;;;;;;;;;;;17.80;99.90;;;;;;4989394;28;19978;-72
2022/09/21 09:26:48;;;;;;;;;;;18.00;99.90;;;;;;4989356;28;19979;-72
2022/09/21 09:29:20;;;;;;;;;;;18.00;99.90;;;;;;4983888;28;20385;-69
2022/09/21 09:31:49;;;;;;;;;;;17.90;99.90;;;;;;4988100;28;19968;-71
2022/09/21 09:34:21;;;;;;;;;;;18.10;99.90;;;;;;4989117;28;21298;-74
2022/09/21 09:36:51;;;;;;;;;;;18.00;99.90;;;;;;4982606;28;19968;-72
2022/09/21 09:39:28;;;;;;;;;;;18.30;99.90;;;;;;4985995;28;19972;-69
2022/09/21 09:42:10;;;;;;;;;;;18.30;99.90;;;;;;4985358;28;19959;-72
2022/09/21 09:44:54;;;;;;;;;;;18.10;99.90;;;;;;4989406;28;19960;-73
2022/09/21 09:47:27;;;;;;;;;;;18.50;99.90;;;;;;4990810;28;19972;-72
2022/09/21 09:50:02;;;;;;;;;;;18.50;99.90;;;;;;4992708;28;19970;-72
2022/09/21 09:52:30;;;;;;;;;;;18.60;99.90;;;;;;4989135;28;20424;-71
2022/09/21 09:55:00;;;;;;;;;;;18.70;99.90;;;;;;4987985;28;19964;-71
2022/09/21 09:57:29;;;;;;;;;;;19.00;99.90;;;;;;4987140;28;19972;-71
2022/09/21 10:00:00;;;;;;;;;;;19.20;99.90;;;;;;4991689;28;20051;-72
2022/09/21 10:02:28;;;;;;;;;;;18.90;99.90;;;;;;4991906;28;19971;-72
2022/09/21 10:05:02;;;;;;;;;;;19.10;99.90;;;;;;4992836;28;20011;-71
2022/09/21 10:07:33;;;;;;;;;;;19.10;99.90;;;;;;4992450;28;19960;-70
2022/09/21 10:10:03;;;;;;;;;;;19.10;99.90;;;;;;4992313;28;19964;-72
2022/09/21 10:12:30;;;;;;;;;;;19.10;99.90;;;;;;4991930;28;19969;-71
2022/09/21 10:15:00;;;;;;;;;;;19.10;99.90;;;;;;4994661;28;19976;-71
2022/09/21 10:17:27;;;;;;;;;;;18.80;99.90;;;;;;4993803;28;19960;-71
2022/09/21 10:19:59;;;;;;;;;;;19.00;99.90;;;;;;4995502;28;19974;-71
2022/09/21 10:22:28;;;;;;;;;;;19.10;99.90;;;;;;4991940;28;19982;-72
2022/09/21 10:24:58;;;;;;;;;;;19.10;99.90;;;;;;4991622;28;20438;-72
2022/09/21 10:27:27;;;;;;;;;;;19.00;99.90;;;;;;4991548;28;20149;-72
2022/09/21 10:29:56;;;;;;;;;;;19.10;99.90;;;;;;4991852;28;20450;-71
2022/09/21 10:32:25;;;;;;;;;;;19.10;99.90;;;;;;4991881;28;19963;-72
2022/09/21 10:35:00;;;;;;;;;;;19.60;99.90;;;;;;4992725;28;20059;-72
2022/09/21 10:37:29;;;;;;;;;;;19.50;99.90;;;;;;4991667;28;19975;-71
2022/09/21 10:39:57;;;;;;;;;;;19.70;99.90;;;;;;4991313;28;19964;-72
2022/09/21 10:42:25;;;;;;;;;;;19.90;99.90;;;;;;4991167;28;19965;-72
2022/09/21 10:45:06;;;;;;;;;;;19.50;99.90;;;;;;4996389;28;20357;-72
2022/09/21 10:47:35;;;;;;;;;;;19.70;99.90;;;;;;4995786;28;19970;-72
2022/09/21 10:50:04;;;;;;;;;;;19.80;99.90;;;;;;4991944;28;19967;-72
2022/09/21 10:52:33;;;;;;;;;;;19.40;99.90;;;;;;4991485;28;19963;-71
2022/09/21 10:55:01;;;;;;;;;;;19.50;99.90;;;;;;4994218;28;19964;-72
2022/09/21 10:57:31;;;;;;;;;;;20.10;99.90;;;;;;4995486;28;19968;-72
2022/09/21 11:00:11;;;;;;;;;;;20.30;99.90;;;;;;4995987;28;20637;-71
2022/09/21 11:02:41;;;;;;;;;;;20.40;99.90;;;;;;4994533;28;19966;-71
2022/09/21 11:05:12;;;;;;;;;;;20.60;99.90;;;;;;4996203;28;19967;-72
2022/09/21 11:07:43;;;;;;;;;;;20.50;99.90;;;;;;4995496;28;19974;-72
2022/09/21 11:10:16;;;;;;;;;;;20.50;99.90;;;;;;4995723;28;19963;-72
2022/09/21 11:12:48;;;;;;;;;;;20.60;99.90;;;;;;4995146;28;20479;-72
2022/09/21 11:15:23;;;;;;;;;;;20.70;99.90;;;;;;4992960;28;19966;-72
2022/09/21 11:17:54;;;;;;;;;;;20.70;99.90;;;;;;5004639;28;20006;-72
2022/09/21 11:20:25;;;;;;;;;;;20.70;99.90;;;;;;4994537;28;19970;-72
2022/09/21 11:22:59;;;;;;;;;;;21.00;99.90;;;;;;4994267;28;20046;-72
2022/09/21 11:25:31;;;;;;;;;;;21.10;99.60;;;;;;4995995;28;19964;-72
2022/09/21 11:28:02;;;;;;;;;;;20.90;99.20;;;;;;4995324;28;19964;-71
2022/09/21 11:30:32;;;;;;;;;;;20.70;99.90;;;;;;5059440;22;19963;-64
2022/09/21 11:33:08;;;;;;;;;;;20.80;99.70;;;;;;5054810;28;20423;-63
2022/09/21 11:35:42;;;;;;;;;;;21.00;99.90;;;;;;5054117;28;19965;-63
2022/09/21 11:38:12;;;;;;;;;;;20.90;99.90;;;;;;5051475;28;19967;-63
2022/09/21 11:40:53;;;;;;;;;;;20.90;99.90;;;;;;5037217;28;19959;-63
2022/09/21 11:43:26;;;;;;;;;;;20.70;99.50;;;;;;5035329;28;19963;-63
2022/09/21 11:46:00;;;;;;;;;;;20.70;99.90;;;;;;5043078;28;19967;-64
2022/09/21 11:48:35;;;;;;;;;;;20.80;99.70;;;;;;5036579;28;19975;-64
2022/09/21 11:51:08;;;;;;;;;;;21.10;99.40;;;;;;5033600;28;19969;-64
2022/09/21 11:53:43;;;;;;;;;;;21.20;99.10;;;;;;5034608;28;19969;-64
2022/09/21 11:56:16;;;;;;;;;;;21.50;98.80;;;;;;5031538;28;20349;-63
2022/09/21 11:58:48;;;;;;;;;;;22.10;98.40;;;;;;5029163;28;19963;-64
2022/09/21 12:01:28;;;;;;;;;;;21.90;97.60;;;;;;5036115;28;19963;-64
2022/09/21 12:04:02;;;;;;;;;;;22.40;96.80;;;;;;5036339;28;19974;-64
2022/09/21 12:06:37;;;;;;;;;;;22.70;96.80;;;;;;5031279;28;20447;-63
2022/09/21 12:09:21;;;;;;;;;;;22.80;96.80;;;;;;5036628;28;19972;-63
2022/09/21 12:11:51;;;;;;;;;;;22.50;97.00;;;;;;5033833;28;19966;-64
2022/09/21 12:14:22;;;;;;;;;;;22.40;97.10;;;;;;5034658;28;20357;-65
2022/09/21 12:16:54;;;;;;;;;;;22.80;97.40;;;;;;5036872;28;19962;-64
2022/09/21 12:19:27;;;;;;;;;;;23.10;96.20;;;;;;5037023;28;19967;-64
2022/09/21 12:21:56;;;;;;;;;;;23.30;94.50;;;;;;5033321;28;20045;-65
2022/09/21 12:24:27;;;;;;;;;;;23.70;93.90;;;;;;5018521;28;19973;-65
2022/09/21 12:27:02;;;;;;;;;;;24.30;93.30;;;;;;5014992;28;19991;-65
2022/09/21 12:29:31;;;;;;;;;;;24.40;93.60;;;;;;5018513;28;19963;-64
2022/09/21 12:32:04;;;;;;;;;;;24.50;93.00;;;;;;5017494;28;20704;-65
2022/09/21 12:34:35;;;;;;;;;;;24.30;93.20;;;;;;5018062;28;19967;-65
2022/09/21 12:37:06;;;;;;;;;;;23.80;92.00;;;;;;5017514;28;19978;-65
2022/09/21 12:39:38;;;;;;;;;;;23.70;91.50;;;;;;5015154;28;19974;-65
2022/09/21 12:42:10;;;;;;;;;;;23.50;90.90;;;;;;5016625;28;20700;-64
2022/09/21 12:44:51;;;;;;;;;;;23.60;91.50;;;;;;5021538;28;19975;-64
2022/09/21 12:47:23;;;;;;;;;;;23.80;92.70;;;;;;5018499;28;20521;-65
2022/09/21 12:49:54;;;;;;;;;;;24.00;93.60;;;;;;5015202;28;19967;-64
2022/09/21 12:52:23;;;;;;;;;;;23.80;91.90;;;;;;5014331;28;19967;-64
2022/09/21 12:54:55;;;;;;;;;;;23.20;92.10;;;;;;5017854;28;19978;-65
2022/09/21 12:57:30;;;;;;;;;;;23.10;92.30;;;;;;5021635;28;20048;-65
2022/09/21 13:00:20;;;;;;;;;;;23.50;92.10;;;;;;5017411;28;19970;-65
2022/09/21 13:02:51;;;;;;;;;;;23.80;92.10;;;;;;5014507;28;19967;-64
2022/09/21 13:05:22;;;;;;;;;;;24.20;91.80;;;;;;5017795;28;19977;-65
2022/09/21 13:07:57;;;;;;;;;;;24.20;90.60;;;;;;5019322;28;19967;-65
2022/09/21 13:10:31;;;;;;;;;;;24.40;90.50;;;;;;5014905;28;19959;-65
2022/09/21 13:13:01;;;;;;;;;;;24.40;90.50;;;;;;5016820;28;20455;-64
2022/09/21 13:15:30;;;;;;;;;;;24.60;90.60;;;;;;5018869;28;19963;-65
2022/09/21 13:18:01;;;;;;;;;;;24.30;90.30;;;;;;5017735;28;19991;-65
2022/09/21 13:20:34;;;;;;;;;;;24.10;90.30;;;;;;5012667;28;19963;-65
2022/09/21 13:23:02;;;;;;;;;;;23.90;90.50;;;;;;5016830;28;19967;-65
2022/09/21 13:25:33;;;;;;;;;;;24.00;90.00;;;;;;5014478;28;20017;-65
2022/09/21 13:28:03;;;;;;;;;;;23.50;90.40;;;;;;5013971;28;20027;-65
2022/09/21 13:30:32;;;;;;;;;;;23.40;90.70;;;;;;5013568;28;19967;-65
2022/09/21 13:33:02;;;;;;;;;;;23.70;90.70;;;;;;5015368;28;19959;-64
2022/09/21 13:35:51;;;;;;;;;;;23.30;90.10;;;;;;5018328;28;19964;-64
2022/09/21 13:38:23;;;;;;;;;;;23.60;90.30;;;;;;5016486;28;19967;-65
2022/09/21 13:40:57;;;;;;;;;;;23.70;90.00;;;;;;5015706;28;19971;-65
2022/09/21 13:43:55;;;;;;;;;;;23.60;88.70;;;;;;5018690;28;20458;-65
2022/09/21 13:46:48;;;;;;;;;;;23.10;86.60;;;;;;5015959;28;20052;-64
2022/09/21 13:49:21;;;;;;;;;;;23.10;86.70;;;;;;5019445;28;20062;-65
2022/09/21 13:51:55;;;;;;;;;;;23.20;85.60;;;;;;5015680;28;20155;-65
2022/09/21 13:54:24;;;;;;;;;;;23.30;86.60;;;;;;5015023;28;19959;-65
2022/09/21 13:57:04;;;;;;;;;;;23.90;88.10;;;;;;5017435;28;19977;-65
2022/09/21 13:59:37;;;;;;;;;;;24.30;85.40;;;;;;5015931;28;19967;-65
2022/09/21 14:02:18;;;;;;;;;;;24.90;85.40;;;;;;5012747;28;19973;-65
2022/09/21 14:04:49;;;;;;;;;;;24.90;86.50;;;;;;5018338;28;19970;-65
2022/09/21 14:07:17;;;;;;;;;;;24.30;86.10;;;;;;5018001;28;19973;-64
2022/09/21 14:09:53;;;;;;;;;;;23.70;86.30;;;;;;5019856;28;19978;-64
2022/09/21 14:12:23;;;;;;;;;;;23.30;86.00;;;;;;5018288;28;21117;-65
2022/09/21 14:15:09;;;;;;;;;;;23.20;87.00;;;;;;5016243;28;20809;-65
2022/09/21 14:17:37;;;;;;;;;;;23.30;87.40;;;;;;5017041;28;19967;-65
2022/09/21 14:20:25;;;;;;;;;;;23.50;86.90;;;;;;5013996;28;20170;-65
2022/09/21 14:23:12;;;;;;;;;;;23.80;86.80;;;;;;5016779;28;19963;-65
2022/09/21 14:25:51;;;;;;;;;;;24.20;84.30;;;;;;5019908;28;19981;-65
2022/09/21 14:28:21;;;;;;;;;;;24.70;81.70;;;;;;5017990;28;19967;-65
2022/09/21 14:30:51;;;;;;;;;;;25.00;80.60;;;;;;5015836;28;19971;-65
2022/09/21 14:33:29;;;;;;;;;;;24.70;81.70;;;;;;5016257;28;19974;-65
2022/09/21 14:36:00;;;;;;;;;;;24.50;82.50;;;;;;5018147;28;19966;-65
2022/09/21 14:38:29;;;;;;;;;;;24.50;81.90;;;;;;5015214;28;19966;-65
2022/09/21 14:40:58;;;;;;;;;;;24.80;82.40;;;;;;5015178;28;20041;-65
2022/09/21 14:43:28;;;;;;;;;;;24.80;82.80;;;;;;5016316;28;19967;-65
2022/09/21 14:46:02;;;;;;;;;;;24.40;80.10;;;;;;5018172;28;19963;-66
2022/09/21 14:48:34;;;;;;;;;;;24.30;81.40;;;;;;5014845;28;20438;-64